Time;durP1;ratioP1;P1;durP2;ratioP2;P2;SDS_P1;SDS_P2;PMS_P1;PMS_P2;Temp;Humidity;BMP_temperature;BMP_pressure;BME280_temperature;BME280_humidity;BME280_pressure;Samples;Min_cycle;Max_cycle;Signal;HPM_P1;HPM_P2
2021/05/24 00:00:07;;;;;;;2.38;0.60;;;13.20;83.50;;;;;;5076229;28;20078;-73
2021/05/24 00:02:34;;;;;;;4.60;0.98;;;13.20;83.40;;;;;;5076249;28;20036;-73
2021/05/24 00:04:59;;;;;;;2.17;0.82;;;13.20;83.80;;;;;;5074916;28;20052;-73
2021/05/24 00:07:25;;;;;;;2.15;0.50;;;13.20;83.20;;;;;;5074822;28;20068;-73
2021/05/24 00:09:50;;;;;;;3.65;0.80;;;13.20;83.80;;;;;;5075987;28;20052;-73
2021/05/24 00:12:24;;;;;;;5.53;1.10;;;13.20;83.20;;;;;;5076049;28;20103;-73
2021/05/24 00:14:50;;;;;;;2.67;0.60;;;13.20;83.80;;;;;;5076041;28;20104;-73
2021/05/24 00:17:15;;;;;;;2.58;0.50;;;13.20;83.70;;;;;;5075834;28;20060;-73
2021/05/24 00:19:41;;;;;;;1.83;0.50;;;13.20;83.80;;;;;;5076391;28;20380;-73
2021/05/24 00:22:06;;;;;;;2.95;0.40;;;13.20;83.60;;;;;;5074604;28;20407;-73
2021/05/24 00:24:32;;;;;;;1.95;0.60;;;13.30;83.60;;;;;;5073177;28;20025;-73
2021/05/24 00:26:57;;;;;;;2.58;0.57;;;13.30;84.20;;;;;;5075743;28;20021;-73
2021/05/24 00:29:25;;;;;;;2.35;0.60;;;13.30;83.20;;;;;;5075509;28;20380;-73
2021/05/24 00:31:50;;;;;;;2.92;0.60;;;13.30;83.90;;;;;;5075713;28;20016;-73
2021/05/24 00:34:16;;;;;;;2.40;0.50;;;13.40;83.70;;;;;;5074368;28;20396;-73
2021/05/24 00:36:41;;;;;;;1.88;0.70;;;13.40;83.60;;;;;;5074119;28;20047;-73
2021/05/24 00:39:07;;;;;;;2.30;0.40;;;13.40;83.80;;;;;;5075497;28;20040;-73
2021/05/24 00:41:36;;;;;;;3.47;0.82;;;13.40;84.00;;;;;;5075547;28;20475;-73
2021/05/24 00:44:02;;;;;;;4.32;0.50;;;13.40;84.20;;;;;;5075408;28;20035;-73
2021/05/24 00:46:28;;;;;;;3.50;0.80;;;13.40;84.20;;;;;;5075454;28;20020;-73
2021/05/24 00:48:53;;;;;;;2.70;0.50;;;13.40;84.60;;;;;;5075247;28;20090;-73
2021/05/24 00:51:19;;;;;;;2.58;0.52;;;13.30;84.20;;;;;;5075373;28;20060;-74
2021/05/24 00:53:44;;;;;;;4.45;0.90;;;13.40;84.80;;;;;;5075510;28;20028;-73
2021/05/24 00:56:10;;;;;;;1.98;0.50;;;13.40;84.40;;;;;;5075241;28;20017;-73
2021/05/24 00:58:35;;;;;;;3.95;0.60;;;13.40;84.10;;;;;;5075155;28;20476;-73
2021/05/24 01:01:01;;;;;;;5.72;1.10;;;13.40;84.50;;;;;;5074984;28;20494;-73
2021/05/24 01:03:26;;;;;;;2.15;0.52;;;13.40;84.60;;;;;;5075354;28;20499;-73
2021/05/24 01:05:52;;;;;;;7.00;1.35;;;13.40;84.80;;;;;;5075043;28;20027;-73
2021/05/24 01:08:18;;;;;;;4.45;0.98;;;13.40;84.80;;;;;;5075006;28;20016;-73
2021/05/24 01:10:44;;;;;;;3.55;0.50;;;13.40;84.60;;;;;;5074980;28;20099;-73
2021/05/24 01:13:12;;;;;;;3.85;0.73;;;13.40;84.80;;;;;;5075004;28;20091;-73
2021/05/24 01:15:39;;;;;;;4.35;0.68;;;13.40;85.60;;;;;;5074700;28;20017;-73
2021/05/24 01:18:05;;;;;;;4.28;0.47;;;13.40;85.20;;;;;;5074833;28;20029;-73
2021/05/24 01:20:31;;;;;;;1.98;0.50;;;13.40;85.10;;;;;;5074689;28;20029;-73
2021/05/24 01:25:34;;;;;;;3.60;0.60;;;13.40;85.80;;;;;;5074700;28;20434;-73
2021/05/24 01:28:02;;;;;;;1.65;0.63;;;13.40;85.40;;;;;;5074678;28;20112;-73
2021/05/24 01:30:28;;;;;;;2.53;0.52;;;13.40;85.80;;;;;;5074281;28;20029;-76
2021/05/24 01:32:53;;;;;;;5.15;0.70;;;13.40;86.30;;;;;;5074568;28;20533;-76
2021/05/24 01:35:19;;;;;;;2.33;0.45;;;13.30;86.50;;;;;;5074036;28;20066;-76
2021/05/24 01:37:45;;;;;;;3.72;0.50;;;13.30;86.30;;;;;;5074190;28;20051;-76
2021/05/24 01:40:11;;;;;;;0.82;0.40;;;13.30;86.50;;;;;;5073033;28;20024;-76
2021/05/24 01:42:36;;;;;;;3.22;0.47;;;13.40;86.60;;;;;;5073088;28;20029;-76
2021/05/24 01:45:03;;;;;;;3.20;0.68;;;13.30;86.80;;;;;;5074165;28;20112;-76
2021/05/24 01:47:29;;;;;;;3.55;0.82;;;13.30;87.10;;;;;;5074172;28;20024;-76
2021/05/24 01:49:54;;;;;;;2.15;0.38;;;13.30;87.00;;;;;;5074034;28;20510;-76
2021/05/24 01:52:20;;;;;;;1.77;0.40;;;13.30;86.90;;;;;;5074133;28;20499;-76
2021/05/24 01:54:46;;;;;;;1.80;0.68;;;13.30;87.10;;;;;;5074141;28;20025;-76
2021/05/24 01:57:13;;;;;;;1.52;0.40;;;13.30;87.00;;;;;;5074050;28;20472;-76
2021/05/24 01:59:39;;;;;;;1.95;0.80;;;13.30;87.30;;;;;;5072595;28;20483;-76
2021/05/24 02:02:05;;;;;;;1.80;0.40;;;13.30;87.60;;;;;;5073854;28;20032;-76
2021/05/24 02:04:32;;;;;;;2.45;0.50;;;13.20;87.00;;;;;;5073881;28;20040;-76
2021/05/24 02:06:58;;;;;;;3.20;0.38;;;13.30;87.40;;;;;;5072670;28;20060;-76
2021/05/24 02:09:25;;;;;;;3.58;0.50;;;13.30;87.60;;;;;;5073688;28;20472;-76
2021/05/24 02:11:50;;;;;;;1.83;0.55;;;13.30;87.70;;;;;;5073719;28;20021;-76
2021/05/24 02:14:16;;;;;;;2.55;0.50;;;13.20;88.10;;;;;;5072399;28;20547;-76
2021/05/24 02:16:43;;;;;;;3.63;0.85;;;13.20;88.60;;;;;;5073477;28;20021;-76
2021/05/24 02:19:11;;;;;;;2.30;0.50;;;13.20;88.30;;;;;;5073654;28;20032;-76
2021/05/24 02:21:38;;;;;;;2.38;0.40;;;13.20;88.80;;;;;;5073639;28;20020;-76
2021/05/24 02:24:05;;;;;;;3.15;0.60;;;13.20;88.60;;;;;;5072408;28;20035;-76
2021/05/24 02:26:31;;;;;;;3.75;0.40;;;13.20;88.50;;;;;;5073456;28;20506;-76
2021/05/24 02:28:56;;;;;;;2.88;0.35;;;13.20;89.30;;;;;;5073640;28;20036;-76
2021/05/24 02:31:22;;;;;;;1.23;0.50;;;13.20;89.60;;;;;;5073231;28;20029;-76
2021/05/24 02:33:48;;;;;;;3.00;0.70;;;13.20;89.80;;;;;;5073487;28;20016;-76
2021/05/24 02:36:14;;;;;;;5.20;0.80;;;13.20;89.50;;;;;;5073489;28;20028;-76
2021/05/24 02:38:40;;;;;;;3.67;0.50;;;13.20;89.60;;;;;;5073285;28;20506;-76
2021/05/24 02:41:05;;;;;;;1.50;0.55;;;13.20;90.00;;;;;;5073261;28;20361;-76
2021/05/24 02:43:31;;;;;;;5.18;1.27;;;13.30;89.40;;;;;;5072025;28;20025;-76
2021/05/24 02:45:56;;;;;;;1.90;0.52;;;13.20;90.00;;;;;;5071509;28;20115;-76
2021/05/24 02:48:22;;;;;;;1.23;0.40;;;13.20;90.20;;;;;;5071711;28;20029;-76
2021/05/24 02:50:48;;;;;;;2.35;0.40;;;13.20;90.20;;;;;;5073100;28;20032;-76
2021/05/24 02:53:14;;;;;;;1.88;0.40;;;13.20;90.40;;;;;;5072051;28;20387;-76
2021/05/24 02:55:40;;;;;;;2.08;0.52;;;13.20;90.10;;;;;;5073133;28;20476;-76
2021/05/24 02:58:06;;;;;;;2.58;0.35;;;13.20;90.00;;;;;;5073341;28;20024;-76
2021/05/24 03:00:31;;;;;;;0.90;0.38;;;13.20;90.00;;;;;;5073063;28;20027;-76
2021/05/24 03:02:58;;;;;;;2.42;0.40;;;13.30;90.00;;;;;;5073142;28;20048;-76
2021/05/24 03:05:23;;;;;;;2.67;0.40;;;13.20;90.10;;;;;;5073250;28;20108;-76
2021/05/24 03:07:50;;;;;;;1.38;0.40;;;13.20;90.20;;;;;;5073167;28;20056;-76
2021/05/24 03:10:18;;;;;;;1.77;0.32;;;13.20;90.40;;;;;;5071697;28;20043;-76
2021/05/24 03:12:44;;;;;;;2.28;0.40;;;13.20;90.20;;;;;;5071813;28;20017;-76
2021/05/24 03:15:11;;;;;;;1.77;0.50;;;13.20;90.30;;;;;;5073119;28;20033;-76
2021/05/24 03:17:37;;;;;;;2.65;0.50;;;13.10;90.50;;;;;;5072860;28;20032;-76
2021/05/24 03:20:04;;;;;;;2.63;0.50;;;13.10;90.50;;;;;;5071692;28;20029;-76
2021/05/24 03:22:30;;;;;;;3.72;1.30;;;13.10;90.40;;;;;;5072922;28;20365;-76
2021/05/24 03:24:56;;;;;;;1.92;0.40;;;13.10;90.50;;;;;;5071635;28;20102;-76
2021/05/24 03:27:21;;;;;;;1.60;0.60;;;13.10;90.50;;;;;;5072960;28;20032;-76
2021/05/24 03:29:48;;;;;;;2.42;0.50;;;13.10;90.60;;;;;;5071477;28;20024;-76
2021/05/24 03:32:13;;;;;;;3.97;0.52;;;13.10;90.70;;;;;;5072708;28;20103;-76
2021/05/24 03:34:39;;;;;;;3.20;0.65;;;13.10;90.90;;;;;;5072875;28;20049;-76
2021/05/24 03:37:04;;;;;;;2.42;0.70;;;13.00;90.80;;;;;;5072632;28;20559;-76
2021/05/24 03:39:30;;;;;;;3.05;0.50;;;13.10;90.80;;;;;;5071416;28;20115;-76
2021/05/24 03:41:56;;;;;;;4.43;0.60;;;13.00;91.00;;;;;;5072677;28;20056;-76
2021/05/24 03:44:22;;;;;;;1.95;0.47;;;13.00;91.00;;;;;;5072695;28;20097;-76
2021/05/24 03:46:47;;;;;;;1.45;0.55;;;13.00;91.30;;;;;;5072802;28;20043;-76
2021/05/24 03:49:13;;;;;;;4.45;0.68;;;13.00;91.20;;;;;;5072555;28;20490;-76
2021/05/24 03:51:39;;;;;;;1.08;0.30;;;13.00;91.30;;;;;;5072566;28;20429;-76
2021/05/24 03:54:06;;;;;;;4.38;0.70;;;13.00;91.20;;;;;;5072610;28;20491;-76
2021/05/24 03:56:31;;;;;;;1.67;0.55;;;13.00;91.20;;;;;;5071429;28;20066;-76
2021/05/24 03:58:57;;;;;;;3.65;0.60;;;13.00;91.20;;;;;;5075352;28;20063;-76
2021/05/24 04:01:22;;;;;;;2.47;0.65;;;13.00;91.40;;;;;;5075875;28;20037;-76
2021/05/24 04:03:50;;;;;;;3.10;0.65;;;13.00;91.30;;;;;;5075862;28;20028;-76
2021/05/24 04:06:16;;;;;;;1.58;0.50;;;13.00;91.50;;;;;;5075227;28;20405;-76
2021/05/24 04:08:44;;;;;;;2.92;0.60;;;13.00;91.70;;;;;;5076031;28;20032;-76
2021/05/24 04:11:11;;;;;;;1.42;0.30;;;12.90;91.70;;;;;;5074784;28;20028;-76
2021/05/24 04:13:37;;;;;;;2.75;0.55;;;13.00;91.70;;;;;;5076062;28;20028;-76
2021/05/24 04:16:03;;;;;;;2.15;0.50;;;12.90;91.70;;;;;;5075965;28;20533;-76
2021/05/24 04:18:32;;;;;;;3.08;0.60;;;13.00;91.70;;;;;;5074686;28;20029;-76
2021/05/24 04:20:59;;;;;;;5.68;0.47;;;12.90;91.70;;;;;;5074618;28;20483;-76
2021/05/24 04:23:24;;;;;;;2.65;0.32;;;13.00;92.00;;;;;;5075939;28;20032;-76
2021/05/24 04:25:50;;;;;;;2.13;0.40;;;13.00;91.70;;;;;;5075719;28;20086;-76
2021/05/24 04:28:15;;;;;;;1.27;0.40;;;13.00;91.60;;;;;;5075870;28;20024;-76
2021/05/24 04:30:42;;;;;;;2.70;0.40;;;13.00;92.00;;;;;;5075585;28;20431;-76
2021/05/24 04:33:09;;;;;;;3.08;0.40;;;13.00;91.80;;;;;;5075790;28;20112;-76
2021/05/24 04:35:34;;;;;;;2.72;0.43;;;13.00;92.00;;;;;;5075528;28;20021;-76
2021/05/24 04:38:00;;;;;;;4.40;0.40;;;13.00;92.00;;;;;;5075442;28;20067;-76
2021/05/24 04:40:26;;;;;;;3.60;0.55;;;13.00;91.90;;;;;;5075484;28;20078;-76
2021/05/24 04:42:51;;;;;;;1.98;0.50;;;13.00;91.90;;;;;;5075597;28;20460;-76
2021/05/24 04:45:17;;;;;;;2.63;0.50;;;13.00;92.00;;;;;;5074908;28;20039;-76
2021/05/24 04:47:43;;;;;;;1.40;0.40;;;13.00;92.00;;;;;;5065539;28;20033;-76
2021/05/24 04:50:09;;;;;;;1.30;0.50;;;13.00;92.00;;;;;;5072765;28;20033;-76
2021/05/24 04:52:35;;;;;;;2.33;0.50;;;13.00;92.10;;;;;;5074417;28;20020;-76
2021/05/24 04:55:03;;;;;;;1.58;0.40;;;13.00;92.00;;;;;;5075160;28;20027;-77
2021/05/24 04:57:28;;;;;;;3.25;0.40;;;13.00;92.00;;;;;;5075226;28;20020;-76
2021/05/24 04:59:54;;;;;;;4.40;0.50;;;13.10;91.80;;;;;;5075209;28;20078;-76
2021/05/24 05:02:19;;;;;;;2.15;1.10;;;13.10;91.80;;;;;;5075047;28;20033;-76
2021/05/24 05:04:46;;;;;;;3.60;0.50;;;13.10;91.80;;;;;;5074966;28;20027;-76
2021/05/24 05:07:12;;;;;;;3.10;0.35;;;13.10;91.90;;;;;;5075097;28;20028;-76
2021/05/24 05:09:37;;;;;;;1.25;0.40;;;13.10;92.10;;;;;;5074194;28;20050;-76
2021/05/24 05:12:03;;;;;;;1.85;0.40;;;13.20;92.10;;;;;;5074925;28;20025;-76
2021/05/24 05:14:29;;;;;;;2.10;0.47;;;13.20;92.00;;;;;;5075021;28;20016;-76
2021/05/24 05:16:54;;;;;;;0.85;0.28;;;13.20;91.80;;;;;;5074582;28;20081;-76
2021/05/24 05:19:20;;;;;;;2.03;0.50;;;13.20;91.90;;;;;;5074823;28;20040;-76
2021/05/24 05:21:47;;;;;;;2.88;0.40;;;13.20;92.10;;;;;;5073247;28;20119;-76
2021/05/24 05:24:12;;;;;;;1.70;0.40;;;13.20;91.70;;;;;;5074765;28;20025;-76
2021/05/24 05:26:38;;;;;;;2.95;0.50;;;13.30;91.70;;;;;;5074570;28;20025;-76
2021/05/24 05:29:03;;;;;;;4.60;0.63;;;13.30;91.80;;;;;;5074587;28;20166;-76
2021/05/24 05:31:29;;;;;;;2.35;0.40;;;13.30;91.90;;;;;;5074473;28;20060;-76
2021/05/24 05:33:55;;;;;;;2.38;0.50;;;13.30;91.90;;;;;;5074529;28;20075;-76
2021/05/24 05:36:21;;;;;;;3.25;0.52;;;13.30;91.60;;;;;;5074311;28;20055;-76
2021/05/24 05:38:46;;;;;;;1.90;0.50;;;13.30;91.70;;;;;;5072989;28;20373;-76
2021/05/24 05:41:12;;;;;;;2.58;0.55;;;13.30;91.60;;;;;;5072972;28;20023;-76
2021/05/24 05:43:38;;;;;;;2.75;0.40;;;13.40;91.60;;;;;;5074451;28;20107;-76
2021/05/24 05:46:03;;;;;;;1.70;0.30;;;13.40;91.80;;;;;;5074245;28;20047;-76
2021/05/24 05:48:29;;;;;;;2.53;0.50;;;13.40;91.90;;;;;;5074282;28;20032;-76
2021/05/24 05:50:54;;;;;;;1.67;0.40;;;13.50;91.30;;;;;;5073820;28;20107;-76
2021/05/24 05:53:20;;;;;;;1.65;0.40;;;13.50;91.20;;;;;;5072856;28;20496;-76
2021/05/24 05:55:46;;;;;;;2.30;0.43;;;13.50;91.10;;;;;;5074095;28;20028;-76
2021/05/24 05:58:11;;;;;;;1.40;0.40;;;13.50;91.10;;;;;;5074087;28;20353;-76
2021/05/24 06:00:37;;;;;;;1.50;0.30;;;13.50;91.20;;;;;;5074105;28;20388;-76
2021/05/24 06:03:04;;;;;;;3.75;0.43;;;13.50;90.70;;;;;;5073619;28;20029;-77
2021/05/24 06:05:30;;;;;;;1.40;0.40;;;13.50;91.10;;;;;;5073815;28;20069;-76
2021/05/24 06:07:55;;;;;;;2.20;0.30;;;13.40;91.40;;;;;;5073931;28;20032;-76
2021/05/24 06:10:21;;;;;;;2.28;0.70;;;13.40;91.90;;;;;;5072530;28;20467;-76
2021/05/24 06:12:47;;;;;;;2.10;0.50;;;13.20;92.50;;;;;;5072458;28;20028;-76
2021/05/24 06:15:16;;;;;;;4.13;0.57;;;13.10;93.50;;;;;;5073622;28;20020;-76
2021/05/24 06:17:42;;;;;;;1.23;0.50;;;12.70;94.60;;;;;;5073641;28;20056;-76
2021/05/24 06:20:09;;;;;;;0.82;0.32;;;12.40;95.20;;;;;;5072341;28;20839;-76
2021/05/24 06:22:34;;;;;;;1.42;0.40;;;12.10;96.60;;;;;;5072218;28;20051;-76
2021/05/24 06:25:00;;;;;;;3.28;0.40;;;11.90;97.40;;;;;;5071878;28;20472;-76
2021/05/24 06:27:26;;;;;;;2.80;0.50;;;11.90;97.90;;;;;;5071813;28;20020;-76
2021/05/24 06:29:51;;;;;;;2.13;0.40;;;11.80;97.90;;;;;;5071770;28;20028;-76
2021/05/24 06:32:17;;;;;;;3.55;0.45;;;11.90;98.20;;;;;;5071624;28;20030;-79
2021/05/24 06:34:42;;;;;;;2.00;0.35;;;11.80;98.50;;;;;;5071790;28;20020;-76
2021/05/24 06:37:08;;;;;;;2.15;0.40;;;11.90;98.80;;;;;;5072634;28;20033;-77
2021/05/24 06:39:34;;;;;;;3.63;0.50;;;11.80;98.80;;;;;;5072134;28;20025;-77
2021/05/24 06:41:59;;;;;;;1.48;0.55;;;11.80;98.90;;;;;;5072571;28;20024;-76
2021/05/24 06:44:25;;;;;;;1.55;0.77;;;11.80;99.20;;;;;;5072928;28;20020;-76
2021/05/24 06:46:51;;;;;;;0.90;0.30;;;11.80;99.10;;;;;;5071595;28;20024;-76
2021/05/24 06:49:16;;;;;;;2.90;0.47;;;11.90;99.20;;;;;;5072075;28;20112;-76
2021/05/24 06:51:42;;;;;;;1.05;0.40;;;11.90;98.70;;;;;;5072217;28;20021;-76
2021/05/24 06:54:08;;;;;;;2.08;0.40;;;11.90;98.60;;;;;;5072340;28;20028;-76
2021/05/24 06:56:34;;;;;;;1.42;0.32;;;12.00;98.40;;;;;;5072176;28;20536;-76
2021/05/24 06:58:59;;;;;;;1.15;0.50;;;12.00;98.30;;;;;;5072702;28;20013;-76
2021/05/24 07:01:25;;;;;;;1.02;0.30;;;12.00;98.20;;;;;;5072722;28;20020;-77
2021/05/24 07:03:50;;;;;;;1.38;0.52;;;12.00;97.90;;;;;;5072716;28;20013;-78
2021/05/24 07:06:16;;;;;;;2.17;0.40;;;12.10;98.00;;;;;;5071230;28;20017;-77
2021/05/24 07:08:42;;;;;;;1.98;0.30;;;12.10;98.20;;;;;;5071741;28;20016;-77
2021/05/24 07:11:07;;;;;;;1.20;0.50;;;12.20;97.80;;;;;;5072343;28;20082;-77
2021/05/24 07:13:33;;;;;;;3.53;0.40;;;12.20;97.30;;;;;;5070481;28;20025;-78
2021/05/24 07:15:58;;;;;;;1.30;0.40;;;12.20;97.00;;;;;;5070774;28;20024;-77
2021/05/24 07:18:24;;;;;;;1.98;0.50;;;12.30;96.80;;;;;;5070869;28;20025;-77
2021/05/24 07:20:50;;;;;;;1.50;0.40;;;12.30;96.90;;;;;;5071967;28;20029;-77
2021/05/24 07:23:16;;;;;;;1.45;0.60;;;12.30;97.20;;;;;;5071580;28;20048;-77
2021/05/24 07:25:42;;;;;;;1.02;0.40;;;12.20;97.70;;;;;;5072340;28;20016;-77
2021/05/24 07:28:08;;;;;;;4.03;0.70;;;12.20;98.30;;;;;;5072912;28;20036;-77
2021/05/24 07:30:34;;;;;;;2.47;0.50;;;12.20;98.50;;;;;;5071383;28;20109;-78
2021/05/24 07:33:00;;;;;;;1.75;0.85;;;12.20;99.20;;;;;;5074096;28;20025;-77
2021/05/24 07:35:27;;;;;;;3.25;0.60;;;12.10;99.60;;;;;;5076661;28;20047;-77
2021/05/24 07:37:53;;;;;;;1.73;0.50;;;12.10;99.10;;;;;;5075102;28;20518;-77
2021/05/24 07:40:18;;;;;;;1.65;0.55;;;12.10;99.70;;;;;;5075491;28;20037;-77
2021/05/24 07:42:45;;;;;;;1.55;0.52;;;12.10;99.80;;;;;;5075230;28;20036;-77
2021/05/24 07:45:11;;;;;;;1.85;0.50;;;12.20;99.40;;;;;;5075105;28;20495;-77
2021/05/24 07:47:36;;;;;;;2.97;0.60;;;12.30;99.40;;;;;;5075258;28;20032;-77
2021/05/24 07:50:03;;;;;;;1.17;0.40;;;12.30;99.30;;;;;;5075280;28;20040;-77
2021/05/24 07:52:29;;;;;;;2.63;0.57;;;12.30;99.20;;;;;;5074480;28;20055;-77
2021/05/24 07:54:54;;;;;;;1.00;0.50;;;12.30;98.80;;;;;;5074096;28;20048;-77
2021/05/24 07:57:20;;;;;;;3.00;0.50;;;12.30;99.10;;;;;;5074677;28;20411;-77
2021/05/24 07:59:45;;;;;;;2.38;0.70;;;12.40;98.90;;;;;;5073920;28;20038;-77
2021/05/24 08:02:12;;;;;;;3.90;1.05;;;12.40;98.80;;;;;;5075021;28;20039;-77
2021/05/24 08:04:37;;;;;;;1.65;0.60;;;12.40;99.10;;;;;;5073304;28;20024;-75
2021/05/24 08:07:03;;;;;;;3.40;0.57;;;12.40;98.80;;;;;;5074834;28;20012;-75
2021/05/24 08:09:29;;;;;;;4.38;0.70;;;12.40;98.50;;;;;;5074516;28;20025;-75
2021/05/24 08:11:55;;;;;;;2.90;0.70;;;12.30;98.90;;;;;;5074381;28;20044;-75
2021/05/24 08:14:21;;;;;;;1.65;0.60;;;12.30;99.50;;;;;;5073383;28;20464;-75
2021/05/24 08:16:47;;;;;;;4.93;1.00;;;12.20;99.90;;;;;;5074620;28;20081;-75
2021/05/24 08:19:14;;;;;;;3.95;1.00;;;12.10;99.90;;;;;;5073706;28;20103;-77
2021/05/24 08:21:44;;;;;;;4.65;0.80;;;12.00;99.90;;;;;;5072117;28;20021;-77
2021/05/24 08:24:10;;;;;;;1.67;0.63;;;12.00;99.90;;;;;;5073388;28;20028;-77
2021/05/24 08:26:37;;;;;;;0.93;0.60;;;11.90;99.90;;;;;;5072571;28;20048;-78
2021/05/24 08:29:02;;;;;;;2.10;0.75;;;11.90;99.90;;;;;;5074400;28;20027;-78
2021/05/24 08:31:28;;;;;;;3.67;0.60;;;12.00;99.90;;;;;;5074514;28;20012;-78
2021/05/24 08:33:53;;;;;;;0.93;0.68;;;11.90;99.90;;;;;;5073304;28;20483;-78
2021/05/24 08:36:19;;;;;;;2.53;0.75;;;11.90;99.90;;;;;;5074360;28;20024;-78
2021/05/24 08:38:44;;;;;;;2.30;0.80;;;12.00;99.90;;;;;;5074219;28;20124;-78
2021/05/24 08:41:10;;;;;;;3.13;0.98;;;12.00;99.90;;;;;;5074315;28;20372;-78
2021/05/24 08:43:38;;;;;;;6.90;1.23;;;12.00;99.90;;;;;;5073668;28;20513;-78
2021/05/24 08:46:04;;;;;;;3.58;0.70;;;11.90;99.90;;;;;;5066697;28;20462;-78
2021/05/24 08:48:30;;;;;;;2.85;0.70;;;11.90;99.90;;;;;;5067931;28;20051;-78
2021/05/24 08:50:56;;;;;;;2.03;0.70;;;11.90;99.90;;;;;;5072694;28;20472;-78
2021/05/24 08:53:22;;;;;;;2.28;0.60;;;11.80;99.90;;;;;;5074128;28;20116;-78
2021/05/24 08:55:48;;;;;;;2.80;0.70;;;11.80;99.90;;;;;;5074445;28;20028;-78
2021/05/24 08:58:14;;;;;;;1.83;0.60;;;11.80;99.90;;;;;;5074694;28;20016;-78
2021/05/24 09:00:40;;;;;;;2.70;0.70;;;11.90;99.90;;;;;;5074746;28;20093;-78
2021/05/24 09:03:18;;;;;;;2.45;0.50;;;11.90;99.90;;;;;;5074730;28;20020;-78
2021/05/24 09:05:44;;;;;;;1.27;0.52;;;12.00;99.90;;;;;;5074297;28;20399;-78
2021/05/24 09:08:10;;;;;;;1.33;0.60;;;12.20;99.90;;;;;;5073848;28;20052;-79
2021/05/24 09:10:36;;;;;;;3.88;0.60;;;12.30;99.90;;;;;;5070826;28;20059;-79
2021/05/24 09:13:16;;;;;;;1.77;0.73;;;12.30;99.90;;;;;;5059816;28;20048;-78
2021/05/24 09:15:44;;;;;;;1.17;0.50;;;12.40;99.90;;;;;;5072480;28;20021;-79
2021/05/24 09:18:11;;;;;;;1.58;0.57;;;12.60;99.90;;;;;;5073156;28;20104;-77
2021/05/24 09:20:39;;;;;;;1.70;0.50;;;12.70;99.90;;;;;;5073482;28;20016;-77
2021/05/24 09:23:14;;;;;;;3.55;0.70;;;12.80;99.90;;;;;;5072182;28;20107;-77
2021/05/24 09:25:46;;;;;;;2.58;0.70;;;12.90;99.90;;;;;;5085878;28;20031;-78
2021/05/24 09:28:42;;;;;;;1.48;0.50;;;13.10;99.90;;;;;;5082585;28;20029;-78
2021/05/24 09:31:21;;;;;;;2.15;0.70;;;13.20;99.90;;;;;;5070296;28;20514;-74
2021/05/24 09:33:49;;;;;;;2.20;0.55;;;13.30;99.90;;;;;;5069175;28;20024;-74
2021/05/24 09:36:15;;;;;;;4.10;0.70;;;13.30;99.90;;;;;;5069441;28;20021;-74
2021/05/24 09:38:45;;;;;;;2.60;1.15;;;13.20;99.90;;;;;;5070356;28;20044;-75
2021/05/24 09:41:12;;;;;;;4.22;0.68;;;13.00;99.90;;;;;;5073324;28;20051;-75
2021/05/24 09:43:40;;;;;;;1.92;0.57;;;12.90;99.90;;;;;;5071664;28;20036;-74
2021/05/24 09:46:25;;;;;;;2.08;0.75;;;13.00;99.90;;;;;;5069087;28;20551;-74
2021/05/24 09:48:56;;;;;;;3.00;0.70;;;13.00;99.90;;;;;;5072121;28;20021;-75
2021/05/24 09:51:27;;;;;;;1.67;0.73;;;13.00;99.90;;;;;;5072396;28;20494;-74
2021/05/24 09:54:11;;;;;;;1.35;0.70;;;12.90;99.90;;;;;;5088281;28;20423;-72
2021/05/24 09:56:39;;;;;;;2.65;0.70;;;13.00;99.90;;;;;;5074836;28;20027;-72
2021/05/24 09:59:08;;;;;;;2.47;0.73;;;13.00;99.90;;;;;;5082756;28;20024;-73
2021/05/24 10:01:47;;;;;;;1.57;0.90;;;12.90;99.90;;;;;;5071587;28;20023;-73
2021/05/24 10:04:21;;;;;;;4.23;0.80;;;12.90;99.90;;;;;;5071915;28;20027;-73
2021/05/24 10:06:47;;;;;;;1.20;0.65;;;12.80;99.90;;;;;;5073183;28;20121;-73
2021/05/24 10:09:16;;;;;;;1.90;0.80;;;12.80;99.90;;;;;;5078086;28;20035;-72
2021/05/24 10:11:44;;;;;;;1.73;0.95;;;12.80;99.90;;;;;;5046613;28;20115;-73
2021/05/24 10:14:12;;;;;;;2.95;1.20;;;12.80;99.90;;;;;;5066550;28;20024;-72
2021/05/24 10:16:45;;;;;;;2.20;1.13;;;12.70;99.90;;;;;;5078768;28;20034;-72
2021/05/24 10:19:12;;;;;;;5.55;1.02;;;12.70;99.90;;;;;;5070569;28;20057;-73
2021/05/24 10:21:39;;;;;;;3.25;1.30;;;12.50;99.90;;;;;;5072754;28;20024;-73
2021/05/24 10:24:05;;;;;;;4.40;1.20;;;12.10;99.90;;;;;;5072983;28;20024;-75
2021/05/24 10:26:31;;;;;;;3.55;1.20;;;11.80;99.90;;;;;;5072639;28;20495;-75
2021/05/24 10:29:00;;;;;;;3.67;1.27;;;11.70;99.90;;;;;;5068087;28;20017;-77
2021/05/24 10:31:29;;;;;;;3.27;1.37;;;11.50;99.90;;;;;;5072716;28;20414;-78
2021/05/24 10:33:55;;;;;;;3.10;1.55;;;11.50;99.90;;;;;;5072635;28;20764;-76
2021/05/24 10:36:32;;;;;;;2.28;1.60;;;11.50;99.90;;;;;;5082130;28;20020;-75
2021/05/24 10:39:04;;;;;;;2.17;1.50;;;11.50;99.90;;;;;;5074601;28;20052;-74
2021/05/24 10:41:42;;;;;;;2.88;1.83;;;11.60;99.90;;;;;;5072803;28;20103;-75
2021/05/24 10:44:11;;;;;;;2.97;1.80;;;11.70;99.90;;;;;;5072516;28;20483;-74
2021/05/24 10:46:37;;;;;;;4.07;2.22;;;11.70;99.90;;;;;;5060501;28;20047;-75
2021/05/24 10:49:04;;;;;;;4.35;2.22;;;11.90;99.90;;;;;;5059511;28;20021;-75
2021/05/24 10:51:47;;;;;;;4.25;1.98;;;11.90;99.90;;;;;;5046585;28;20024;-75
2021/05/24 10:54:27;;;;;;;2.72;1.38;;;12.00;99.90;;;;;;5063747;28;20017;-75
2021/05/24 10:56:58;;;;;;;2.65;1.30;;;12.20;99.90;;;;;;5042696;28;20112;-75
2021/05/24 10:59:45;;;;;;;5.05;2.25;;;12.40;99.90;;;;;;5042347;28;20079;-73
2021/05/24 11:02:15;;;;;;;4.03;1.83;;;12.50;99.90;;;;;;5075409;28;20021;-74
2021/05/24 11:04:58;;;;;;;2.38;1.10;;;12.50;99.90;;;;;;5084914;28;20031;-74
2021/05/24 11:07:23;;;;;;;2.45;1.23;;;12.60;99.90;;;;;;5060777;28;20031;-74
2021/05/24 11:09:49;;;;;;;2.00;0.90;;;12.70;99.90;;;;;;5101280;28;20024;-74
2021/05/24 11:12:29;;;;;;;1.80;0.63;;;12.80;99.90;;;;;;5071654;28;20027;-74
2021/05/24 11:15:14;;;;;;;1.55;0.85;;;12.90;99.90;;;;;;5070583;28;20383;-74
2021/05/24 11:17:58;;;;;;;1.55;1.00;;;13.00;99.90;;;;;;5081086;28;20020;-74
2021/05/24 11:20:27;;;;;;;1.63;0.60;;;13.00;99.90;;;;;;5077369;28;20024;-74
2021/05/24 11:23:17;;;;;;;0.95;0.80;;;13.10;99.90;;;;;;5082751;28;20033;-74
2021/05/24 11:25:59;;;;;;;1.42;0.80;;;13.10;99.90;;;;;;5072236;28;20028;-75
2021/05/24 11:28:51;;;;;;;2.42;0.63;;;13.00;99.90;;;;;;5073112;28;20028;-75
2021/05/24 11:31:18;;;;;;;2.10;0.73;;;13.10;99.90;;;;;;5074645;28;20021;-74
2021/05/24 11:33:49;;;;;;;1.67;0.50;;;13.30;99.90;;;;;;5072450;28;20020;-74
2021/05/24 11:36:28;;;;;;;1.83;0.55;;;13.30;99.90;;;;;;5072064;28;20028;-74
2021/05/24 11:39:12;;;;;;;2.90;0.50;;;13.30;99.90;;;;;;5092755;28;20460;-75
2021/05/24 11:41:51;;;;;;;0.65;0.30;;;13.30;99.90;;;;;;5072843;28;20016;-75
2021/05/24 11:44:17;;;;;;;0.70;0.30;;;13.20;99.90;;;;;;5074899;28;20025;-74
2021/05/24 11:46:51;;;;;;;2.03;0.30;;;13.00;99.90;;;;;;5065158;28;20506;-74
2021/05/24 11:49:18;;;;;;;1.40;0.30;;;13.00;99.90;;;;;;5078486;28;20471;-74
2021/05/24 11:51:45;;;;;;;1.13;0.30;;;13.00;99.90;;;;;;5056583;28;20025;-75
2021/05/24 11:54:20;;;;;;;0.50;0.30;;;13.00;99.90;;;;;;5061741;28;20032;-74
2021/05/24 11:56:51;;;;;;;1.05;0.30;;;13.10;99.90;;;;;;5062171;28;20021;-74
2021/05/24 11:59:19;;;;;;;1.10;0.40;;;13.30;99.90;;;;;;5060931;28;20025;-75
2021/05/24 12:01:47;;;;;;;0.50;0.20;;;13.60;99.90;;;;;;5067621;28;20131;-74
2021/05/24 12:04:24;;;;;;;0.75;0.20;;;13.90;99.90;;;;;;5070740;28;20013;-74
2021/05/24 12:06:52;;;;;;;0.90;0.30;;;14.20;99.90;;;;;;5069910;28;20020;-74
2021/05/24 12:09:43;;;;;;;0.63;0.28;;;14.60;99.90;;;;;;5059926;28;20070;-74
2021/05/24 12:12:17;;;;;;;3.08;0.40;;;15.10;99.70;;;;;;5071531;28;20499;-74
2021/05/24 12:14:45;;;;;;;0.55;0.45;;;15.10;97.50;;;;;;5071765;28;20024;-74
2021/05/24 12:17:12;;;;;;;1.02;0.30;;;14.90;97.40;;;;;;5071685;28;20047;-74
2021/05/24 12:19:39;;;;;;;0.32;0.20;;;14.80;96.40;;;;;;5070219;28;20044;-75
2021/05/24 12:22:06;;;;;;;1.02;0.25;;;14.50;96.20;;;;;;5054546;28;20487;-76
2021/05/24 12:24:43;;;;;;;0.50;0.30;;;14.30;97.90;;;;;;5073836;28;20055;-76
2021/05/24 12:27:10;;;;;;;2.05;0.30;;;14.20;97.60;;;;;;5073920;28;20031;-76
2021/05/24 12:29:51;;;;;;;0.65;0.22;;;14.10;98.20;;;;;;5075087;28;20522;-76
2021/05/24 12:32:33;;;;;;;1.88;0.45;;;14.10;96.90;;;;;;5074483;28;20024;-74
2021/05/24 12:35:03;;;;;;;1.38;0.30;;;14.10;97.60;;;;;;5072157;28;20036;-75
2021/05/24 12:37:29;;;;;;;1.25;0.40;;;14.10;97.50;;;;;;5079771;28;20514;-74
2021/05/24 12:39:56;;;;;;;0.73;0.30;;;14.10;97.30;;;;;;5081601;28;20029;-73
2021/05/24 12:42:22;;;;;;;0.52;0.22;;;14.10;97.20;;;;;;5086737;28;20024;-74
2021/05/24 12:44:48;;;;;;;0.68;0.30;;;14.00;97.90;;;;;;5080314;28;20503;-75
2021/05/24 12:47:18;;;;;;;1.45;0.40;;;13.90;97.50;;;;;;5079047;28;20510;-74
2021/05/24 12:49:46;;;;;;;1.55;0.30;;;13.90;97.80;;;;;;5076751;28;20036;-75
2021/05/24 12:52:13;;;;;;;1.63;0.40;;;13.90;98.40;;;;;;5075614;28;20150;-74